Proctorville, North Carolina
Current Conditions -  °F | °C
As of 4:54 AM on Thursday 23 Oct 2014 (Local Time) from KLBT Reporting Station
Clear Clear  
Wind Chill: 44°   Ceiling: Unl
Heat Index: 44°   Visibility: 10mi
Dew Point: 40°   Wind: 3mph
Humidity: 85%   Direction: 290°WNW
Pressure: 30.02"   Gusts: NA
Location:  34.48°N, 79.04°W
Report Text: KLBT 230854Z AUTO 29003KT 10SM CLR 07/04 A3002 RMK AO2 SLP164 T00670044 57008
Loading
Personal Weather Stations






























Interactive Weather Map
Tropical Storm Tracking
New forecast layout! Learn more

10-Day Weather Forecast

Advertisements
Track Severe Weather on mobile